Flight Track Log - Related Links

Times and Time Zones

All times are in EDT time to prevent confusion due to time zone crossing. See the UPS1219 flight status page for this flight to view local times or setup timezone preferences in your user account.

Time Position Orientation Groundspeed Altitude Reporting Facility
EDT Latitude Longitude Course Direction KTS MPH feet Rate Location/Type
Fri 11:01:33 PM 38.9380 -77.5280 261° West 208 239 2,800  Level FlightAware ADS-B
Fri 11:01:53 PM 38.9320 -77.5560 255° West 248 285 3,600 3,273 Climbing FlightAware ADS-B
Fri 11:02:17 PM 38.9230 -77.5900 251° West 261 300 5,200 4,091 Climbing FlightAware ADS-B
Fri 11:02:37 PM 38.9160 -77.6210 254° West 271 312 6,600 4,050 Climbing FlightAware ADS-B
Fri 11:02:57 PM 38.9080 -77.6530 252° West 282 325 7,900 3,750 Climbing FlightAware ADS-B
Fri 11:03:17 PM 38.9010 -77.6860 255° West 292 336 9,100 3,500 Climbing FlightAware ADS-B
Fri 11:03:45 PM 38.8910 -77.7330 255° West 312 359 10,700 2,625 Climbing FlightAware ADS-B
Fri 11:04:21 PM 38.8840 -77.8050 263° West 361 415 11,900 2,647 Climbing FlightAware ADS-B
Fri 11:04:53 PM 38.8800 -77.8720 266° West 374 430 13,700 3,353 Climbing FlightAware ADS-B
Fri 11:05:29 PM 38.8740 -77.9550 265° West 385 443 15,700 3,250 Climbing FlightAware ADS-B
Fri 11:06:05 PM 38.8680 -78.0370 265° West 396 456 17,600 3,000 Climbing FlightAware ADS-B
Fri 11:06:41 PM 38.8610 -78.1200 264° West 407 468 19,300 2,750 Climbing FlightAware ADS-B
Fri 11:07:17 PM 38.8550 -78.2090 265° West 421 484 20,900 2,571 Climbing FlightAware ADS-B
Fri 11:07:51 PM 38.8540 -78.2970 269° West 434 499 22,300 2,364 Climbing FlightAware ADS-B
Fri 11:08:23 PM 38.8510 -78.3780 267° West 444 511 23,500 2,261 Climbing FlightAware ADS-B
Fri 11:09:00 PM 38.8380 -78.4760 260° West 459 528 24,900 2,167 Climbing FlightAware ADS-B
Fri 11:09:35 PM 38.8220 -78.5730 258° West 469 540 26,100 1,775 Climbing FlightAware ADS-B
Fri 11:10:11 PM 38.8060 -78.6680 258° West 482 555 27,000 771 Climbing FlightAware ADS-B
Fri 11:10:45 PM 38.7890 -78.7700 258° West 495 570 27,000 522 Level FlightAware ADS-B
Fri 11:11:20 PM 38.7720 -78.8710 258° West 507 583 27,600 1,859 Climbing FlightAware ADS-B
Fri 11:11:56 PM 38.7550 -78.9720 258° West 498 573 29,200 2,769 Climbing FlightAware ADS-B
Fri 11:12:25 PM 38.7410 -79.0540 258° West 487 560 30,600 2,333 Climbing FlightAware ADS-B
Fri 11:13:08 PM 38.7280 -79.1790 262° West 484 557 32,000 1,120 Climbing FlightAware ADS-B
Fri 11:13:40 PM 38.7200 -79.2720 264° West 480 552 32,000  Level FlightAware ADS-B
Fri 11:14:16 PM 38.7100 -79.3720 263° West 474 545 32,000  Level FlightAware ADS-B
Fri 11:14:52 PM 38.7000 -79.4690 263° West 472 543 32,000  Level FlightAware ADS-B
Fri 11:15:26 PM 38.6900 -79.5630 262° West 472 543 32,000  Level FlightAware ADS-B
Fri 11:16:00 PM 38.6800 -79.6590 262° West 473 544 32,000  Level FlightAware ADS-B
Fri 11:16:32 PM 38.6710 -79.7470 263° West 473 544 32,000  Level FlightAware ADS-B
Fri 11:17:08 PM 38.6620 -79.8330 262° West 474 545 32,000  Level FlightAware ADS-B
Fri 11:17:43 PM 38.6520 -79.9350 263° West 475 547 32,000  Level FlightAware ADS-B
Fri 11:18:18 PM 38.6410 -80.0390 262° West 476 548 32,000  Level FlightAware ADS-B
Fri 11:19:08 PM 38.6260 -80.1730 262° West 476 548 32,000  Level FlightAware ADS-B
Fri 11:19:43 PM 38.6160 -80.2700 263° West 475 547 32,000  Level FlightAware ADS-B
Fri 11:20:20 PM 38.6060 -80.3570 262° West 475 547 32,000  Level FlightAware ADS-B
Fri 11:20:54 PM 38.5940 -80.4730 262° West 472 543 32,000  Level FlightAware ADS-B
Fri 11:21:30 PM 38.5820 -80.5720 261° West 472 543 32,000  Level FlightAware ADS-B
Fri 11:22:07 PM 38.5660 -80.6760 259° West 473 544 32,000  Level FlightAware ADS-B
Fri 11:22:39 PM 38.5500 -80.7580 256° West 472 543 32,000  Level FlightAware ADS-B
Fri 11:23:16 PM 38.5300 -80.8610 256° West 469 540 32,000  Level FlightAware ADS-B
Fri 11:23:49 PM 38.5130 -80.9500 256° West 466 536 32,000  Level FlightAware ADS-B
Fri 11:24:24 PM 38.4950 -81.0380 255° West 464 534 32,000  Level FlightAware ADS-B
Fri 11:25:00 PM 38.4760 -81.1380 256° West 465 535 32,000  Level FlightAware ADS-B
Fri 11:25:34 PM 38.4580 -81.2290 256° West 465 535 32,000  Level FlightAware ADS-B
Fri 11:26:09 PM 38.4410 -81.3160 256° West 465 535 32,000  Level FlightAware ADS-B
Fri 11:26:46 PM 38.4200 -81.4180 255° West 463 533 32,000  Level FlightAware ADS-B
Fri 11:27:18 PM 38.4030 -81.5030 256° West 460 529 32,000  Level FlightAware ADS-B
Fri 11:27:54 PM 38.3840 -81.5960 255° West 458 527 32,000  Level FlightAware ADS-B
Fri 11:28:30 PM 38.3650 -81.6890 255° West 457 526 32,000  Level FlightAware ADS-B
Fri 11:29:06 PM 38.3450 -81.7850 255° West 456 525 32,000  Level FlightAware ADS-B
Fri 11:29:38 PM 38.3230 -81.8630 250° West 458 527 32,000  Level FlightAware ADS-B
Fri 11:30:14 PM 38.2980 -81.9520 250° West 457 526 32,000  Level FlightAware ADS-B
Fri 11:30:50 PM 38.2710 -82.0470 250° West 454 522 32,000  Level FlightAware ADS-B
Fri 11:31:24 PM 38.2480 -82.1310 251° West 447 514 32,000  Level FlightAware ADS-B
Fri 11:32:00 PM 38.2220 -82.2190 249° West 445 512 32,000 -247 Level FlightAware ADS-B
Fri 11:32:37 PM 38.1970 -82.3110 251° West 447 514 31,700 -706 Descending FlightAware ADS-B
Fri 11:33:08 PM 38.1740 -82.3890 249° West 450 518 31,200 -627 Descending FlightAware ADS-B
Fri 11:33:44 PM 38.1490 -82.4780 250° West 449 517 31,000 -167 Descending FlightAware ADS-B
Fri 11:34:20 PM 38.1240 -82.5660 250° West 444 511 31,000  Level FlightAware ADS-B
Fri 11:34:37 PM 38.1111 -82.6093 249° West 444 511 31,000  Level FlightAware ADS-B
Fri 11:35:31 PM 38.0734 -82.7399 250° West 443 510 31,000  Level FlightAware ADS-B
Fri 11:36:06 PM 38.0490 -82.8240 250° West 437 503 31,000  Level FlightAware ADS-B
Fri 11:36:21 PM 38.0386 -82.8603 250° West 438 504 31,000  Level FlightAware ADS-B
Fri 11:36:52 PM 38.0171 -82.9344 250° West 439 505 31,000  Level FlightAware ADS-B
Fri 11:37:24 PM 37.9947 -83.0112 250° West 438 504 31,000  Level FlightAware ADS-B
Fri 11:37:54 PM 37.9732 -83.0847 250° West 439 505 31,000  Level FlightAware ADS-B
Fri 11:38:24 PM 37.9520 -83.1572 250° West 437 503 31,000  Level FlightAware ADS-B
Fri 11:38:59 PM 37.9275 -83.2402 250° West 436 502 31,000 -329 Level FlightAware ADS-B
Fri 11:39:37 PM 37.9004 -83.3319 249° West 441 507 30,600 -783 Descending FlightAware ADS-B
Fri 11:40:08 PM 37.8788 -83.4048 249° West 434 499 30,100 -1,082 Descending FlightAware ADS-B
Fri 11:40:38 PM 37.8579 -83.4754 249° West 427 491 29,500 -1,068 Descending FlightAware ADS-B
Fri 11:41:21 PM 37.8280 -83.5750 249° West 421 484 28,800 -984 Descending FlightAware ADS-B
Fri 11:41:39 PM 37.8164 -83.6153 250° West 420 483 28,500 -1,167 Descending FlightAware ADS-B
Fri 11:42:33 PM 37.7790 -83.7394 249° West 416 479 27,400 -1,395 Descending FlightAware ADS-B
Fri 11:43:05 PM 37.7572 -83.8119 249° West 413 475 26,500 -1,594 Descending FlightAware ADS-B
Fri 11:43:37 PM 37.7359 -83.8831 249° West 406 467 25,700 -1,500 Descending FlightAware ADS-B
Fri 11:44:13 PM 37.7122 -83.9622 249° West 401 461 24,800 -1,378 Descending FlightAware ADS-B
Fri 11:44:51 PM 37.6875 -84.0438 249° West 391 450 24,000 -882 Descending FlightAware ADS-B
Fri 11:45:21 PM 37.6677 -84.1088 249° West 390 449 23,800 -714 Descending FlightAware ADS-B
Fri 11:45:33 PM 37.6603 -84.1341 250° West 389 448 23,500 -1,765 Descending FlightAware ADS-B
Fri 11:45:38 PM 37.6580 -84.1450 255° West 388 447 23,300 -1,846 Descending FlightAware ADS-B
Fri 11:45:46 PM 37.6558 -84.1628 261° West 387 445 23,100 -2,137 Descending FlightAware ADS-B
Fri 11:46:51 PM 37.6560 -84.3060 270° West 383 441 20,700 -2,317 Descending FlightAware ADS-B
Fri 11:47:27 PM 37.6560 -84.3870 270° West 381 438 19,200 -2,250 Descending FlightAware ADS-B
Fri 11:47:55 PM 37.6560 -84.4480 270° West 369 425 18,300 -2,229 Descending FlightAware ADS-B
Fri 11:48:37 PM 37.6560 -84.5370 270° West 360 414 16,600 -2,400 Descending FlightAware ADS-B
Fri 11:49:25 PM 37.6550 -84.6370 269° West 352 405 14,700 -2,053 Descending FlightAware ADS-B
Fri 11:49:53 PM 37.6550 -84.6930 270° West 343 395 14,000 -1,500 Descending FlightAware ADS-B
Fri 11:50:29 PM 37.6550 -84.7610 270° West 333 383 13,100 -1,500 Descending FlightAware ADS-B
Fri 11:51:01 PM 37.6540 -84.8250 269° West 329 379 12,300 -1,333 Descending FlightAware ADS-B
Fri 11:51:41 PM 37.6550 -84.8990 271° West 317 365 11,500 -1,000 Descending FlightAware ADS-B
Fri 11:52:01 PM 37.6560 -84.9360 272° West 302 348 11,300 -882 Descending FlightAware ADS-B
Fri 11:52:15 PM 37.6640 -84.9590 294° West 298 343 11,000 -1,680 Descending FlightAware ADS-B
Fri 11:52:51 PM 37.6880 -85.0120 300° West 284 327 9,900 -1,607 Descending FlightAware ADS-B
Fri 11:53:11 PM 37.7000 -85.0400 298° West 280 322 9,500 -1,350 Descending FlightAware ADS-B
Fri 11:53:31 PM 37.7120 -85.0680 298° West 279 321 9,000 -1,500 Descending FlightAware ADS-B
Fri 11:53:55 PM 37.7270 -85.1010 300° West 274 315 8,400 -1,636 Descending FlightAware ADS-B
Fri 11:54:15 PM 37.7400 -85.1310 299° West 274 315 7,800 -1,650 Descending FlightAware ADS-B
Fri 11:54:35 PM 37.7520 -85.1580 299° West 272 313 7,300 -1,650 Descending FlightAware ADS-B
Fri 11:54:55 PM 37.7640 -85.1860 298° West 274 315 6,700 -1,814 Descending FlightAware ADS-B
Fri 11:55:18 PM 37.7790 -85.2180 301° West 275 316 6,000 -1,667 Descending FlightAware ADS-B
Fri 11:55:31 PM 37.7870 -85.2360 299° West 277 319 5,700 -1,463 Descending FlightAware ADS-B
Fri 11:55:59 PM 37.8040 -85.2760 298° West 270 311 5,000 -1,364 Descending FlightAware ADS-B
Fri 11:56:15 PM 37.8090 -85.3000 285° West 257 296 4,700 -480 Descending FlightAware ADS-B
Fri 11:56:49 PM 37.8170 -85.3440 283° West 256 295 4,600 -1,138 Descending FlightAware ADS-B
Fri 11:57:13 PM 37.8230 -85.3810 282° West 241 277 3,600 -1,015 Descending FlightAware ADS-B
Fri 11:57:54 PM 37.8310 -85.4310 281° West 232 267 3,500 -149 Descending FlightAware ADS-B
Sat 12:00:35 AM 37.9030 -85.6060 298° West 205 236 3,100 -127 Descending FlightAware ADS-B
Sat 12:01:03 AM 37.9210 -85.6240 322° Northwest 205 236 3,100  Level FlightAware ADS-B
Sat 12:01:22 AM 37.9340 -85.6380 320° Northwest 183 211 3,100  Level FlightAware ADS-B
Sat 12:01:29 AM 37.9410 -85.6440 326° Northwest 183 211 3,100  Level FlightAware ADS-B
Sat 12:01:37 AM 37.9480 -85.6480 336° Northwest 183 211 3,100  Level FlightAware ADS-B
Sat 12:01:49 AM 37.9570 -85.6520 341° North 184 212 3,100  Level FlightAware ADS-B
Sat 12:02:13 AM 37.9770 -85.6600 342° North 189 217 3,100  Level FlightAware ADS-B
Sat 12:02:23 AM 37.9850 -85.6630 344° North 191 220 3,100  Level FlightAware ADS-B
Sat 12:02:45 AM 38.0040 -85.6690 346° North 190 219 3,100  Level FlightAware ADS-B
Sat 12:03:05 AM 38.0210 -85.6750 344° North 188 216 3,100  Level FlightAware ADS-B
Sat 12:03:22 AM 38.0350 -85.6790 347° North 187 215 3,100 -500 Level FlightAware ADS-B
Sat 12:03:41 AM 38.0510 -85.6850 344° North 179 206 2,800 -973 Descending FlightAware ADS-B
Sat 12:03:59 AM 38.0660 -85.6900 345° North 166 191 2,500 -947 Descending FlightAware ADS-B
Sat 12:04:19 AM 38.0790 -85.6950 343° North 149 171 2,200 -750 Descending FlightAware ADS-B
Sat 12:04:39 AM 38.0920 -85.6990 346° North 131 151 2,000 -600 Descending FlightAware ADS-B
Sat 12:04:59 AM 38.1030 -85.7030 344° North 125 144 1,800 -500 Descending FlightAware ADS-B
Sat 12:05:15 AM 38.1120 -85.7060 345° North 124 143 1,700 -500 Descending FlightAware ADS-B
Sat 12:05:35 AM 38.1230 -85.7090 348° North 118 136 1,500 -600 Descending FlightAware ADS-B
Sat 12:05:55 AM 38.1330 -85.7130 343° North 116 133 1,300 -667 Descending FlightAware ADS-B
Sat 12:06:11 AM 38.1420 -85.7160 345° North 118 136 1,100 -667 Descending FlightAware ADS-B
Sat 12:06:31 AM 38.1520 -85.7190 347° North 119 137 900 -632 Descending FlightAware ADS-B
Sat 12:06:49 AM 38.1620 -85.7230 343° North 121 139 700 -667 Descending FlightAware ADS-B
Sat 12:07:09 AM 38.1730 -85.7260 348° North 100 115 -2,100 Descending FlightAware ADS-B
Sat 12:07:36 AM 38.1830 -85.7300 343° North 100 115  Level FlightAware ADS-B

Login

Don't have an account? Register now (free) for customized features, flight alerts, and more!